< < Back
Terminal Aerodrome Forecast


Current Version              Previous Versions:   1  2  3  4  5  6  7  8  9  

Terminal Aerodrome Forecast

062
FTUS44 KBMX 232000 AAA
TAFBHM
TAF AMD
KBHM 232044Z 2321/2418 13005KT P6SM SCT014 BKN040 OVC070
     FM232200 19014G20KT P6SM BKN025 BKN035
     FM240400 20010KT 4SM BR OVC010
     FM241500 25014KT P6SM OVC020=



Latest METAR

537
SAUS70 KWBC 240900 RRP
MTRBHM
METAR KBHM 240853Z 20014KT 10SM BKN020 17/15 A2971 RMK AO2 SLP055
T01720150 51005


USA.gov is the U.S. government's official web portal to all federal, state and local government web resources and services.